Terminal Aerodrome Forecast
Issued by NWS

Home | Current Version | Previous Version | Text Only | Print | Product List | Glossary On
Versions: 1 2 3 4 5 6 7 8 9 10 11 12 13 14 15
000
FTUS46 KMTR 041100
TAFSTS
TAF
KSTS 041120Z 0412/0512 22003KT 5SM BR OVC010
     FM041800 VRB03KT P6SM SCT020
     FM042000 18010KT P6SM SKC
     FM050400 16005KT P6SM SKC
     FM050800 VRB03KT P6SM SCT015=

USA.gov is the U.S. government's official web portal to all federal, state and local government web resources and services.